sensor_id;sensor_type;location;lat;lon;timestamp;P1;P2;P0
71858;PMS5003;59713;50.866;4.324;2023-07-28T00:00:39;4;3;
71858;PMS5003;59713;50.866;4.324;2023-07-28T00:01:38;4;3;
71858;PMS5003;59713;50.866;4.324;2023-07-28T00:02:38;4;3;
71858;PMS5003;59713;50.866;4.324;2023-07-28T00:03:38;3;3;
71858;PMS5003;59713;50.866;4.324;2023-07-28T00:04:38;3;3;
71858;PMS5003;59713;50.866;4.324;2023-07-28T00:05:38;3;3;
71858;PMS5003;59713;50.866;4.324;2023-07-28T00:06:38;3;3;
71858;PMS5003;59713;50.866;4.324;2023-07-28T00:06:38;3;3;
71858;PMS5003;59713;50.866;4.324;2023-07-28T00:07:38;3;3;
71858;PMS5003;59713;50.866;4.324;2023-07-28T00:08:38;3;3;
71858;PMS5003;59713;50.866;4.324;2023-07-28T00:09:38;6;4;
71858;PMS5003;59713;50.866;4.324;2023-07-28T00:10:39;6;4;
71858;PMS5003;59713;50.866;4.324;2023-07-28T00:11:38;6;4;
71858;PMS5003;59713;50.866;4.324;2023-07-28T00:12:38;3;3;
71858;PMS5003;59713;50.866;4.324;2023-07-28T00:13:38;3;3;
71858;PMS5003;59713;50.866;4.324;2023-07-28T00:14:38;3;3;
71858;PMS5003;59713;50.866;4.324;2023-07-28T00:15:38;3;3;
71858;PMS5003;59713;50.866;4.324;2023-07-28T00:16:38;3;3;
71858;PMS5003;59713;50.866;4.324;2023-07-28T00:16:38;3;3;
71858;PMS5003;59713;50.866;4.324;2023-07-28T00:17:38;3;3;
71858;PMS5003;59713;50.866;4.324;2023-07-28T00:18:38;3;3;
71858;PMS5003;59713;50.866;4.324;2023-07-28T00:19:38;3;3;
71858;PMS5003;59713;50.866;4.324;2023-07-28T00:20:38;3;3;
71858;PMS5003;59713;50.866;4.324;2023-07-28T00:21:38;1;1;
71858;PMS5003;59713;50.866;4.324;2023-07-28T00:22:38;1;1;
71858;PMS5003;59713;50.866;4.324;2023-07-28T00:23:38;1;1;
71858;PMS5003;59713;50.866;4.324;2023-07-28T00:24:38;3;3;
71858;PMS5003;59713;50.866;4.324;2023-07-28T00:25:38;3;3;
71858;PMS5003;59713;50.866;4.324;2023-07-28T00:25:38;3;3;
71858;PMS5003;59713;50.866;4.324;2023-07-28T00:26:38;3;3;
71858;PMS5003;59713;50.866;4.324;2023-07-28T00:27:38;2;2;
71858;PMS5003;59713;50.866;4.324;2023-07-28T00:28:38;2;2;
71858;PMS5003;59713;50.866;4.324;2023-07-28T00:29:38;2;2;
71858;PMS5003;59713;50.866;4.324;2023-07-28T00:30:38;4;3;
71858;PMS5003;59713;50.866;4.324;2023-07-28T00:31:38;4;3;
71858;PMS5003;59713;50.866;4.324;2023-07-28T00:32:38;4;3;
71858;PMS5003;59713;50.866;4.324;2023-07-28T00:33:38;6;4;
71858;PMS5003;59713;50.866;4.324;2023-07-28T00:34:38;6;4;
71858;PMS5003;59713;50.866;4.324;2023-07-28T00:34:38;6;4;
71858;PMS5003;59713;50.866;4.324;2023-07-28T00:35:38;6;4;
71858;PMS5003;59713;50.866;4.324;2023-07-28T00:36:39;6;6;
71858;PMS5003;59713;50.866;4.324;2023-07-28T00:37:38;6;6;
71858;PMS5003;59713;50.866;4.324;2023-07-28T00:38:38;6;6;
71858;PMS5003;59713;50.866;4.324;2023-07-28T00:39:38;3;3;
71858;PMS5003;59713;50.866;4.324;2023-07-28T00:40:38;3;3;
71858;PMS5003;59713;50.866;4.324;2023-07-28T00:41:38;3;3;
71858;PMS5003;59713;50.866;4.324;2023-07-28T00:42:38;3;3;
71858;PMS5003;59713;50.866;4.324;2023-07-28T00:43:38;3;3;
71858;PMS5003;59713;50.866;4.324;2023-07-28T00:43:38;3;3;
71858;PMS5003;59713;50.866;4.324;2023-07-28T00:44:38;3;3;
71858;PMS5003;59713;50.866;4.324;2023-07-28T00:45:38;3;3;
71858;PMS5003;59713;50.866;4.324;2023-07-28T00:46:39;3;3;
71858;PMS5003;59713;50.866;4.324;2023-07-28T00:47:38;3;3;
71858;PMS5003;59713;50.866;4.324;2023-07-28T00:48:38;3;3;
71858;PMS5003;59713;50.866;4.324;2023-07-28T00:49:38;3;3;
71858;PMS5003;59713;50.866;4.324;2023-07-28T00:50:38;3;3;
71858;PMS5003;59713;50.866;4.324;2023-07-28T00:51:38;4;4;
71858;PMS5003;59713;50.866;4.324;2023-07-28T00:52:38;4;4;
71858;PMS5003;59713;50.866;4.324;2023-07-28T00:52:38;4;4;
71858;PMS5003;59713;50.866;4.324;2023-07-28T00:53:38;4;4;
71858;PMS5003;59713;50.866;4.324;2023-07-28T00:54:38;3;3;
71858;PMS5003;59713;50.866;4.324;2023-07-28T00:55:38;3;3;
71858;PMS5003;59713;50.866;4.324;2023-07-28T00:56:38;3;3;
71858;PMS5003;59713;50.866;4.324;2023-07-28T00:57:38;5;2;
71858;PMS5003;59713;50.866;4.324;2023-07-28T00:58:38;5;2;
71858;PMS5003;59713;50.866;4.324;2023-07-28T00:59:38;5;2;
71858;PMS5003;59713;50.866;4.324;2023-07-28T01:00:38;5;4;
71858;PMS5003;59713;50.866;4.324;2023-07-28T01:01:38;5;4;
71858;PMS5003;59713;50.866;4.324;2023-07-28T01:01:38;5;4;
71858;PMS5003;59713;50.866;4.324;2023-07-28T01:02:38;5;4;
71858;PMS5003;59713;50.866;4.324;2023-07-28T01:03:38;4;4;
71858;PMS5003;59713;50.866;4.324;2023-07-28T01:04:38;4;4;
71858;PMS5003;59713;50.866;4.324;2023-07-28T01:05:39;4;4;
71858;PMS5003;59713;50.866;4.324;2023-07-28T01:06:41;4;4;
71858;PMS5003;59713;50.866;4.324;2023-07-28T01:07:39;4;4;
71858;PMS5003;59713;50.866;4.324;2023-07-28T01:08:38;4;4;
71858;PMS5003;59713;50.866;4.324;2023-07-28T01:09:40;5;5;
71858;PMS5003;59713;50.866;4.324;2023-07-28T01:10:38;5;5;
71858;PMS5003;59713;50.866;4.324;2023-07-28T01:10:38;5;5;
71858;PMS5003;59713;50.866;4.324;2023-07-28T01:11:38;5;5;
71858;PMS5003;59713;50.866;4.324;2023-07-28T01:12:38;2;2;
71858;PMS5003;59713;50.866;4.324;2023-07-28T01:13:38;2;2;
71858;PMS5003;59713;50.866;4.324;2023-07-28T01:14:38;2;2;
71858;PMS5003;59713;50.866;4.324;2023-07-28T01:15:38;4;4;
71858;PMS5003;59713;50.866;4.324;2023-07-28T01:16:38;4;4;
71858;PMS5003;59713;50.866;4.324;2023-07-28T01:17:38;4;4;
71858;PMS5003;59713;50.866;4.324;2023-07-28T01:18:38;4;4;
71858;PMS5003;59713;50.866;4.324;2023-07-28T01:19:38;4;4;
71858;PMS5003;59713;50.866;4.324;2023-07-28T01:19:38;4;4;
71858;PMS5003;59713;50.866;4.324;2023-07-28T01:20:38;4;4;
71858;PMS5003;59713;50.866;4.324;2023-07-28T01:21:38;5;5;
71858;PMS5003;59713;50.866;4.324;2023-07-28T01:22:44;5;5;
71858;PMS5003;59713;50.866;4.324;2023-07-28T01:23:41;5;5;
71858;PMS5003;59713;50.866;4.324;2023-07-28T01:24:40;6;5;
71858;PMS5003;59713;50.866;4.324;2023-07-28T01:25:41;6;5;
71858;PMS5003;59713;50.866;4.324;2023-07-28T01:26:38;6;5;
71858;PMS5003;59713;50.866;4.324;2023-07-28T01:27:38;4;4;
71858;PMS5003;59713;50.866;4.324;2023-07-28T01:28:39;4;4;
71858;PMS5003;59713;50.866;4.324;2023-07-28T01:28:39;4;4;
71858;PMS5003;59713;50.866;4.324;2023-07-28T01:29:39;4;4;
71858;PMS5003;59713;50.866;4.324;2023-07-28T01:30:38;4;4;
71858;PMS5003;59713;50.866;4.324;2023-07-28T01:31:39;4;4;
71858;PMS5003;59713;50.866;4.324;2023-07-28T01:32:39;4;4;
71858;PMS5003;59713;50.866;4.324;2023-07-28T01:33:38;4;4;
71858;PMS5003;59713;50.866;4.324;2023-07-28T01:34:38;4;4;
71858;PMS5003;59713;50.866;4.324;2023-07-28T01:35:38;4;4;
71858;PMS5003;59713;50.866;4.324;2023-07-28T01:36:38;6;4;
71858;PMS5003;59713;50.866;4.324;2023-07-28T01:37:38;6;4;
71858;PMS5003;59713;50.866;4.324;2023-07-28T01:37:38;6;4;
71858;PMS5003;59713;50.866;4.324;2023-07-28T01:38:38;6;4;
71858;PMS5003;59713;50.866;4.324;2023-07-28T01:39:38;7;5;
71858;PMS5003;59713;50.866;4.324;2023-07-28T01:40:38;7;5;
71858;PMS5003;59713;50.866;4.324;2023-07-28T01:41:38;7;5;
71858;PMS5003;59713;50.866;4.324;2023-07-28T01:42:38;2;2;
71858;PMS5003;59713;50.866;4.324;2023-07-28T01:43:38;2;2;
71858;PMS5003;59713;50.866;4.324;2023-07-28T01:44:38;2;2;
71858;PMS5003;59713;50.866;4.324;2023-07-28T01:45:38;3;3;
71858;PMS5003;59713;50.866;4.324;2023-07-28T01:46:38;3;3;
71858;PMS5003;59713;50.866;4.324;2023-07-28T01:46:38;3;3;
71858;PMS5003;59713;50.866;4.324;2023-07-28T01:47:38;3;3;
71858;PMS5003;59713;50.866;4.324;2023-07-28T01:48:38;6;5;
71858;PMS5003;59713;50.866;4.324;2023-07-28T01:49:38;6;5;
71858;PMS5003;59713;50.866;4.324;2023-07-28T01:50:38;6;5;
71858;PMS5003;59713;50.866;4.324;2023-07-28T01:51:38;5;4;
71858;PMS5003;59713;50.866;4.324;2023-07-28T01:52:38;5;4;
71858;PMS5003;59713;50.866;4.324;2023-07-28T01:53:38;5;4;
71858;PMS5003;59713;50.866;4.324;2023-07-28T01:54:38;5;5;
71858;PMS5003;59713;50.866;4.324;2023-07-28T01:55:38;5;5;
71858;PMS5003;59713;50.866;4.324;2023-07-28T01:56:38;5;5;
71858;PMS5003;59713;50.866;4.324;2023-07-28T01:56:38;5;5;
71858;PMS5003;59713;50.866;4.324;2023-07-28T01:57:38;4;4;
71858;PMS5003;59713;50.866;4.324;2023-07-28T01:58:38;4;4;
71858;PMS5003;59713;50.866;4.324;2023-07-28T01:59:38;4;4;
71858;PMS5003;59713;50.866;4.324;2023-07-28T02:00:38;4;4;
71858;PMS5003;59713;50.866;4.324;2023-07-28T02:01:38;4;4;
71858;PMS5003;59713;50.866;4.324;2023-07-28T02:02:38;4;4;
71858;PMS5003;59713;50.866;4.324;2023-07-28T02:03:38;3;3;
71858;PMS5003;59713;50.866;4.324;2023-07-28T02:04:38;3;3;
71858;PMS5003;59713;50.866;4.324;2023-07-28T02:05:38;3;3;
71858;PMS5003;59713;50.866;4.324;2023-07-28T02:05:38;3;3;
71858;PMS5003;59713;50.866;4.324;2023-07-28T02:06:38;3;3;
71858;PMS5003;59713;50.866;4.324;2023-07-28T02:07:38;3;3;
71858;PMS5003;59713;50.866;4.324;2023-07-28T02:08:38;3;3;
71858;PMS5003;59713;50.866;4.324;2023-07-28T02:09:38;5;3;
71858;PMS5003;59713;50.866;4.324;2023-07-28T02:10:38;5;3;
71858;PMS5003;59713;50.866;4.324;2023-07-28T02:11:38;5;3;
71858;PMS5003;59713;50.866;4.324;2023-07-28T02:12:38;3;3;
71858;PMS5003;59713;50.866;4.324;2023-07-28T02:13:38;3;3;
71858;PMS5003;59713;50.866;4.324;2023-07-28T02:14:38;3;3;
71858;PMS5003;59713;50.866;4.324;2023-07-28T02:15:38;5;5;
71858;PMS5003;59713;50.866;4.324;2023-07-28T02:15:38;5;5;
71858;PMS5003;59713;50.866;4.324;2023-07-28T02:16:38;5;5;
71858;PMS5003;59713;50.866;4.324;2023-07-28T02:17:38;5;5;
71858;PMS5003;59713;50.866;4.324;2023-07-28T02:18:38;6;4;
71858;PMS5003;59713;50.866;4.324;2023-07-28T02:19:38;6;4;
71858;PMS5003;59713;50.866;4.324;2023-07-28T02:20:38;6;4;
71858;PMS5003;59713;50.866;4.324;2023-07-28T02:21:38;3;3;
71858;PMS5003;59713;50.866;4.324;2023-07-28T02:22:38;3;3;
71858;PMS5003;59713;50.866;4.324;2023-07-28T02:23:38;3;3;
71858;PMS5003;59713;50.866;4.324;2023-07-28T02:24:38;3;3;
71858;PMS5003;59713;50.866;4.324;2023-07-28T02:24:38;3;3;
71858;PMS5003;59713;50.866;4.324;2023-07-28T02:25:38;3;3;
71858;PMS5003;59713;50.866;4.324;2023-07-28T02:26:38;3;3;
71858;PMS5003;59713;50.866;4.324;2023-07-28T02:27:38;4;4;
71858;PMS5003;59713;50.866;4.324;2023-07-28T02:28:38;4;4;
71858;PMS5003;59713;50.866;4.324;2023-07-28T02:29:38;4;4;
71858;PMS5003;59713;50.866;4.324;2023-07-28T02:30:38;7;5;
71858;PMS5003;59713;50.866;4.324;2023-07-28T02:31:38;7;5;
71858;PMS5003;59713;50.866;4.324;2023-07-28T02:32:38;7;5;
71858;PMS5003;59713;50.866;4.324;2023-07-28T02:33:38;4;4;
71858;PMS5003;59713;50.866;4.324;2023-07-28T02:34:38;4;4;
71858;PMS5003;59713;50.866;4.324;2023-07-28T02:34:38;4;4;
71858;PMS5003;59713;50.866;4.324;2023-07-28T02:35:38;4;4;
71858;PMS5003;59713;50.866;4.324;2023-07-28T02:36:38;6;4;
71858;PMS5003;59713;50.866;4.324;2023-07-28T02:37:38;6;4;
71858;PMS5003;59713;50.866;4.324;2023-07-28T02:38:38;6;4;
71858;PMS5003;59713;50.866;4.324;2023-07-28T02:39:38;5;5;
71858;PMS5003;59713;50.866;4.324;2023-07-28T02:40:38;5;5;
71858;PMS5003;59713;50.866;4.324;2023-07-28T02:41:38;5;5;
71858;PMS5003;59713;50.866;4.324;2023-07-28T02:42:38;6;6;
71858;PMS5003;59713;50.866;4.324;2023-07-28T02:43:38;6;6;
71858;PMS5003;59713;50.866;4.324;2023-07-28T02:43:38;6;6;
71858;PMS5003;59713;50.866;4.324;2023-07-28T02:44:38;6;6;
71858;PMS5003;59713;50.866;4.324;2023-07-28T02:45:38;2;2;
71858;PMS5003;59713;50.866;4.324;2023-07-28T02:46:38;2;2;
71858;PMS5003;59713;50.866;4.324;2023-07-28T02:47:38;2;2;
71858;PMS5003;59713;50.866;4.324;2023-07-28T02:48:38;5;5;
71858;PMS5003;59713;50.866;4.324;2023-07-28T02:49:40;5;5;
71858;PMS5003;59713;50.866;4.324;2023-07-28T02:50:38;5;5;
71858;PMS5003;59713;50.866;4.324;2023-07-28T02:51:38;8;7;
71858;PMS5003;59713;50.866;4.324;2023-07-28T02:52:38;8;7;
71858;PMS5003;59713;50.866;4.324;2023-07-28T02:52:38;8;7;
71858;PMS5003;59713;50.866;4.324;2023-07-28T02:53:38;8;7;
71858;PMS5003;59713;50.866;4.324;2023-07-28T02:54:38;5;5;
71858;PMS5003;59713;50.866;4.324;2023-07-28T02:55:40;5;5;
71858;PMS5003;59713;50.866;4.324;2023-07-28T02:56:38;5;5;
71858;PMS5003;59713;50.866;4.324;2023-07-28T02:57:38;5;5;
71858;PMS5003;59713;50.866;4.324;2023-07-28T02:58:38;5;5;
71858;PMS5003;59713;50.866;4.324;2023-07-28T02:59:38;5;5;
71858;PMS5003;59713;50.866;4.324;2023-07-28T03:00:38;4;4;
71858;PMS5003;59713;50.866;4.324;2023-07-28T03:01:38;4;4;
71858;PMS5003;59713;50.866;4.324;2023-07-28T03:02:38;4;4;
71858;PMS5003;59713;50.866;4.324;2023-07-28T03:02:38;4;4;
71858;PMS5003;59713;50.866;4.324;2023-07-28T03:03:38;7;4;
71858;PMS5003;59713;50.866;4.324;2023-07-28T03:04:38;7;4;
71858;PMS5003;59713;50.866;4.324;2023-07-28T03:05:38;7;4;
71858;PMS5003;59713;50.866;4.324;2023-07-28T03:06:38;7;6;
71858;PMS5003;59713;50.866;4.324;2023-07-28T03:07:38;7;6;
71858;PMS5003;59713;50.866;4.324;2023-07-28T03:08:38;7;6;
71858;PMS5003;59713;50.866;4.324;2023-07-28T03:09:38;7;5;
71858;PMS5003;59713;50.866;4.324;2023-07-28T03:10:38;7;5;
71858;PMS5003;59713;50.866;4.324;2023-07-28T03:11:38;7;5;
71858;PMS5003;59713;50.866;4.324;2023-07-28T03:11:38;7;5;
71858;PMS5003;59713;50.866;4.324;2023-07-28T03:12:38;4;4;
71858;PMS5003;59713;50.866;4.324;2023-07-28T03:13:38;4;4;
71858;PMS5003;59713;50.866;4.324;2023-07-28T03:14:38;4;4;
71858;PMS5003;59713;50.866;4.324;2023-07-28T03:15:38;7;5;
71858;PMS5003;59713;50.866;4.324;2023-07-28T03:16:38;7;5;
71858;PMS5003;59713;50.866;4.324;2023-07-28T03:17:38;7;5;
71858;PMS5003;59713;50.866;4.324;2023-07-28T03:18:38;8;5;
71858;PMS5003;59713;50.866;4.324;2023-07-28T03:19:38;8;5;
71858;PMS5003;59713;50.866;4.324;2023-07-28T03:20:38;8;5;
71858;PMS5003;59713;50.866;4.324;2023-07-28T03:20:38;8;5;
71858;PMS5003;59713;50.866;4.324;2023-07-28T03:21:38;5;5;
71858;PMS5003;59713;50.866;4.324;2023-07-28T03:22:38;5;5;
71858;PMS5003;59713;50.866;4.324;2023-07-28T03:23:38;5;5;
71858;PMS5003;59713;50.866;4.324;2023-07-28T03:24:38;7;4;
71858;PMS5003;59713;50.866;4.324;2023-07-28T03:25:38;7;4;
71858;PMS5003;59713;50.866;4.324;2023-07-28T03:26:38;7;4;
71858;PMS5003;59713;50.866;4.324;2023-07-28T03:27:38;6;5;
71858;PMS5003;59713;50.866;4.324;2023-07-28T03:28:38;6;5;
71858;PMS5003;59713;50.866;4.324;2023-07-28T03:29:38;6;5;
71858;PMS5003;59713;50.866;4.324;2023-07-28T03:30:38;5;5;
71858;PMS5003;59713;50.866;4.324;2023-07-28T03:30:38;5;5;
71858;PMS5003;59713;50.866;4.324;2023-07-28T03:31:38;5;5;
71858;PMS5003;59713;50.866;4.324;2023-07-28T03:32:38;5;5;
71858;PMS5003;59713;50.866;4.324;2023-07-28T03:33:38;4;4;
71858;PMS5003;59713;50.866;4.324;2023-07-28T03:34:38;4;4;
71858;PMS5003;59713;50.866;4.324;2023-07-28T03:35:38;4;4;
71858;PMS5003;59713;50.866;4.324;2023-07-28T03:36:38;4;4;
71858;PMS5003;59713;50.866;4.324;2023-07-28T03:37:38;4;4;
71858;PMS5003;59713;50.866;4.324;2023-07-28T03:38:38;4;4;
71858;PMS5003;59713;50.866;4.324;2023-07-28T03:39:38;5;5;
71858;PMS5003;59713;50.866;4.324;2023-07-28T03:39:38;5;5;
71858;PMS5003;59713;50.866;4.324;2023-07-28T03:40:38;5;5;
71858;PMS5003;59713;50.866;4.324;2023-07-28T03:41:38;5;5;
71858;PMS5003;59713;50.866;4.324;2023-07-28T03:42:38;7;4;
71858;PMS5003;59713;50.866;4.324;2023-07-28T03:43:38;7;4;
71858;PMS5003;59713;50.866;4.324;2023-07-28T03:44:38;7;4;
71858;PMS5003;59713;50.866;4.324;2023-07-28T03:45:38;4;3;
71858;PMS5003;59713;50.866;4.324;2023-07-28T03:46:38;4;3;
71858;PMS5003;59713;50.866;4.324;2023-07-28T03:47:38;4;3;
71858;PMS5003;59713;50.866;4.324;2023-07-28T03:48:38;6;4;
71858;PMS5003;59713;50.866;4.324;2023-07-28T03:48:38;6;4;
71858;PMS5003;59713;50.866;4.324;2023-07-28T03:49:38;6;4;
71858;PMS5003;59713;50.866;4.324;2023-07-28T03:50:38;6;4;
71858;PMS5003;59713;50.866;4.324;2023-07-28T03:51:38;5;4;
71858;PMS5003;59713;50.866;4.324;2023-07-28T03:52:38;5;4;
71858;PMS5003;59713;50.866;4.324;2023-07-28T03:53:38;5;4;
71858;PMS5003;59713;50.866;4.324;2023-07-28T03:54:38;3;3;
71858;PMS5003;59713;50.866;4.324;2023-07-28T03:55:38;3;3;
71858;PMS5003;59713;50.866;4.324;2023-07-28T03:56:38;3;3;
71858;PMS5003;59713;50.866;4.324;2023-07-28T03:57:38;5;3;
71858;PMS5003;59713;50.866;4.324;2023-07-28T03:57:38;5;3;
71858;PMS5003;59713;50.866;4.324;2023-07-28T03:58:38;5;3;
71858;PMS5003;59713;50.866;4.324;2023-07-28T03:59:38;5;3;
71858;PMS5003;59713;50.866;4.324;2023-07-28T04:00:38;4;4;
71858;PMS5003;59713;50.866;4.324;2023-07-28T04:01:38;4;4;
71858;PMS5003;59713;50.866;4.324;2023-07-28T04:02:38;4;4;
71858;PMS5003;59713;50.866;4.324;2023-07-28T04:03:39;3;3;
71858;PMS5003;59713;50.866;4.324;2023-07-28T04:04:38;3;3;
71858;PMS5003;59713;50.866;4.324;2023-07-28T04:05:38;3;3;
71858;PMS5003;59713;50.866;4.324;2023-07-28T04:06:39;2;2;
71858;PMS5003;59713;50.866;4.324;2023-07-28T04:07:38;2;2;
71858;PMS5003;59713;50.866;4.324;2023-07-28T04:07:38;2;2;
71858;PMS5003;59713;50.866;4.324;2023-07-28T04:08:38;2;2;
71858;PMS5003;59713;50.866;4.324;2023-07-28T04:09:38;3;3;
71858;PMS5003;59713;50.866;4.324;2023-07-28T04:10:40;3;3;
71858;PMS5003;59713;50.866;4.324;2023-07-28T04:11:38;3;3;
71858;PMS5003;59713;50.866;4.324;2023-07-28T04:12:38;3;3;
71858;PMS5003;59713;50.866;4.324;2023-07-28T04:13:38;3;3;
71858;PMS5003;59713;50.866;4.324;2023-07-28T04:14:38;3;3;
71858;PMS5003;59713;50.866;4.324;2023-07-28T04:15:38;4;2;
71858;PMS5003;59713;50.866;4.324;2023-07-28T04:16:38;4;2;
71858;PMS5003;59713;50.866;4.324;2023-07-28T04:16:38;4;2;
71858;PMS5003;59713;50.866;4.324;2023-07-28T04:17:38;4;2;
71858;PMS5003;59713;50.866;4.324;2023-07-28T04:18:38;0;0;
71858;PMS5003;59713;50.866;4.324;2023-07-28T04:19:38;0;0;
71858;PMS5003;59713;50.866;4.324;2023-07-28T04:20:38;0;0;
71858;PMS5003;59713;50.866;4.324;2023-07-28T04:21:38;6;4;
71858;PMS5003;59713;50.866;4.324;2023-07-28T04:22:38;6;4;
71858;PMS5003;59713;50.866;4.324;2023-07-28T04:23:38;6;4;
71858;PMS5003;59713;50.866;4.324;2023-07-28T04:24:38;3;3;
71858;PMS5003;59713;50.866;4.324;2023-07-28T04:25:38;3;3;
71858;PMS5003;59713;50.866;4.324;2023-07-28T04:25:38;3;3;
71858;PMS5003;59713;50.866;4.324;2023-07-28T04:26:38;3;3;
71858;PMS5003;59713;50.866;4.324;2023-07-28T04:27:38;1;1;
71858;PMS5003;59713;50.866;4.324;2023-07-28T04:28:38;1;1;
71858;PMS5003;59713;50.866;4.324;2023-07-28T04:29:38;1;1;
71858;PMS5003;59713;50.866;4.324;2023-07-28T04:30:38;3;3;
71858;PMS5003;59713;50.866;4.324;2023-07-28T04:31:38;3;3;
71858;PMS5003;59713;50.866;4.324;2023-07-28T04:32:38;3;3;
71858;PMS5003;59713;50.866;4.324;2023-07-28T04:33:40;4;4;
71858;PMS5003;59713;50.866;4.324;2023-07-28T04:34:38;4;4;
71858;PMS5003;59713;50.866;4.324;2023-07-28T04:34:38;4;4;
71858;PMS5003;59713;50.866;4.324;2023-07-28T04:35:38;4;4;
71858;PMS5003;59713;50.866;4.324;2023-07-28T04:36:38;3;3;
71858;PMS5003;59713;50.866;4.324;2023-07-28T04:37:38;3;3;
71858;PMS5003;59713;50.866;4.324;2023-07-28T04:38:38;3;3;
71858;PMS5003;59713;50.866;4.324;2023-07-28T04:39:38;5;3;
71858;PMS5003;59713;50.866;4.324;2023-07-28T04:40:38;5;3;
71858;PMS5003;59713;50.866;4.324;2023-07-28T04:41:38;5;3;
71858;PMS5003;59713;50.866;4.324;2023-07-28T04:42:38;2;2;
71858;PMS5003;59713;50.866;4.324;2023-07-28T04:43:38;2;2;
71858;PMS5003;59713;50.866;4.324;2023-07-28T04:43:38;2;2;
71858;PMS5003;59713;50.866;4.324;2023-07-28T04:44:38;2;2;
71858;PMS5003;59713;50.866;4.324;2023-07-28T04:45:38;3;3;
71858;PMS5003;59713;50.866;4.324;2023-07-28T04:46:38;3;3;
71858;PMS5003;59713;50.866;4.324;2023-07-28T04:47:38;3;3;
71858;PMS5003;59713;50.866;4.324;2023-07-28T04:48:38;4;4;
71858;PMS5003;59713;50.866;4.324;2023-07-28T04:49:38;4;4;
71858;PMS5003;59713;50.866;4.324;2023-07-28T04:50:38;4;4;
71858;PMS5003;59713;50.866;4.324;2023-07-28T04:51:38;3;3;
71858;PMS5003;59713;50.866;4.324;2023-07-28T04:52:38;3;3;
71858;PMS5003;59713;50.866;4.324;2023-07-28T04:52:38;3;3;
71858;PMS5003;59713;50.866;4.324;2023-07-28T04:53:38;3;3;
71858;PMS5003;59713;50.866;4.324;2023-07-28T04:54:38;3;3;
71858;PMS5003;59713;50.866;4.324;2023-07-28T04:55:38;3;3;
71858;PMS5003;59713;50.866;4.324;2023-07-28T04:56:38;3;3;
71858;PMS5003;59713;50.866;4.324;2023-07-28T04:57:38;3;3;
71858;PMS5003;59713;50.866;4.324;2023-07-28T04:58:38;3;3;
71858;PMS5003;59713;50.866;4.324;2023-07-28T04:59:38;3;3;
71858;PMS5003;59713;50.866;4.324;2023-07-28T05:00:38;3;3;
71858;PMS5003;59713;50.866;4.324;2023-07-28T05:01:38;3;3;
71858;PMS5003;59713;50.866;4.324;2023-07-28T05:01:38;3;3;
71858;PMS5003;59713;50.866;4.324;2023-07-28T05:02:38;3;3;
71858;PMS5003;59713;50.866;4.324;2023-07-28T05:03:38;4;4;
71858;PMS5003;59713;50.866;4.324;2023-07-28T05:04:38;4;4;
71858;PMS5003;59713;50.866;4.324;2023-07-28T05:05:38;4;4;
71858;PMS5003;59713;50.866;4.324;2023-07-28T05:06:38;4;4;
71858;PMS5003;59713;50.866;4.324;2023-07-28T05:07:38;4;4;
71858;PMS5003;59713;50.866;4.324;2023-07-28T05:08:38;4;4;
71858;PMS5003;59713;50.866;4.324;2023-07-28T05:09:38;2;2;
71858;PMS5003;59713;50.866;4.324;2023-07-28T05:10:40;2;2;
71858;PMS5003;59713;50.866;4.324;2023-07-28T05:10:40;2;2;
71858;PMS5003;59713;50.866;4.324;2023-07-28T05:11:38;2;2;
71858;PMS5003;59713;50.866;4.324;2023-07-28T05:12:38;3;2;
71858;PMS5003;59713;50.866;4.324;2023-07-28T05:13:38;3;2;
71858;PMS5003;59713;50.866;4.324;2023-07-28T05:14:38;3;2;
71858;PMS5003;59713;50.866;4.324;2023-07-28T05:15:38;4;3;
71858;PMS5003;59713;50.866;4.324;2023-07-28T05:16:38;4;3;
71858;PMS5003;59713;50.866;4.324;2023-07-28T05:17:38;4;3;
71858;PMS5003;59713;50.866;4.324;2023-07-28T05:18:38;1;1;
71858;PMS5003;59713;50.866;4.324;2023-07-28T05:19:38;1;1;
71858;PMS5003;59713;50.866;4.324;2023-07-28T05:19:38;1;1;
71858;PMS5003;59713;50.866;4.324;2023-07-28T05:20:38;1;1;
71858;PMS5003;59713;50.866;4.324;2023-07-28T05:21:38;1;1;
71858;PMS5003;59713;50.866;4.324;2023-07-28T05:22:38;1;1;
71858;PMS5003;59713;50.866;4.324;2023-07-28T05:23:38;1;1;
71858;PMS5003;59713;50.866;4.324;2023-07-28T05:24:38;1;1;
71858;PMS5003;59713;50.866;4.324;2023-07-28T05:25:38;1;1;
71858;PMS5003;59713;50.866;4.324;2023-07-28T05:26:38;1;1;
71858;PMS5003;59713;50.866;4.324;2023-07-28T05:27:40;3;1;
71858;PMS5003;59713;50.866;4.324;2023-07-28T05:28:38;3;1;
71858;PMS5003;59713;50.866;4.324;2023-07-28T05:29:38;3;1;
71858;PMS5003;59713;50.866;4.324;2023-07-28T05:29:38;3;1;
71858;PMS5003;59713;50.866;4.324;2023-07-28T05:30:38;2;2;
71858;PMS5003;59713;50.866;4.324;2023-07-28T05:31:38;2;2;
71858;PMS5003;59713;50.866;4.324;2023-07-28T05:32:38;2;2;
71858;PMS5003;59713;50.866;4.324;2023-07-28T05:33:38;1;1;
71858;PMS5003;59713;50.866;4.324;2023-07-28T05:34:41;1;1;
71858;PMS5003;59713;50.866;4.324;2023-07-28T05:35:38;1;1;
71858;PMS5003;59713;50.866;4.324;2023-07-28T05:36:38;0;0;
71858;PMS5003;59713;50.866;4.324;2023-07-28T05:37:38;0;0;
71858;PMS5003;59713;50.866;4.324;2023-07-28T05:38:38;0;0;
71858;PMS5003;59713;50.866;4.324;2023-07-28T05:38:38;0;0;
71858;PMS5003;59713;50.866;4.324;2023-07-28T05:39:38;3;3;
71858;PMS5003;59713;50.866;4.324;2023-07-28T05:40:38;3;3;
71858;PMS5003;59713;50.866;4.324;2023-07-28T05:41:38;3;3;
71858;PMS5003;59713;50.866;4.324;2023-07-28T05:42:38;2;2;
71858;PMS5003;59713;50.866;4.324;2023-07-28T05:43:38;2;2;
71858;PMS5003;59713;50.866;4.324;2023-07-28T05:44:38;2;2;
71858;PMS5003;59713;50.866;4.324;2023-07-28T05:45:39;5;4;
71858;PMS5003;59713;50.866;4.324;2023-07-28T05:46:38;5;4;
71858;PMS5003;59713;50.866;4.324;2023-07-28T05:47:38;5;4;
71858;PMS5003;59713;50.866;4.324;2023-07-28T05:47:38;5;4;
71858;PMS5003;59713;50.866;4.324;2023-07-28T05:48:38;1;1;
71858;PMS5003;59713;50.866;4.324;2023-07-28T05:49:38;1;1;
71858;PMS5003;59713;50.866;4.324;2023-07-28T05:50:38;1;1;
71858;PMS5003;59713;50.866;4.324;2023-07-28T05:51:38;4;1;
71858;PMS5003;59713;50.866;4.324;2023-07-28T05:52:38;4;1;
71858;PMS5003;59713;50.866;4.324;2023-07-28T05:53:38;4;1;
71858;PMS5003;59713;50.866;4.324;2023-07-28T05:54:38;1;1;
71858;PMS5003;59713;50.866;4.324;2023-07-28T05:55:38;1;1;
71858;PMS5003;59713;50.866;4.324;2023-07-28T05:56:38;1;1;
71858;PMS5003;59713;50.866;4.324;2023-07-28T05:56:38;1;1;
71858;PMS5003;59713;50.866;4.324;2023-07-28T05:57:38;1;1;
71858;PMS5003;59713;50.866;4.324;2023-07-28T05:58:38;1;1;
71858;PMS5003;59713;50.866;4.324;2023-07-28T05:59:38;1;1;
71858;PMS5003;59713;50.866;4.324;2023-07-28T06:00:39;1;1;
71858;PMS5003;59713;50.866;4.324;2023-07-28T06:01:38;1;1;
71858;PMS5003;59713;50.866;4.324;2023-07-28T06:02:38;1;1;
71858;PMS5003;59713;50.866;4.324;2023-07-28T06:03:38;1;1;
71858;PMS5003;59713;50.866;4.324;2023-07-28T06:04:38;1;1;
71858;PMS5003;59713;50.866;4.324;2023-07-28T06:05:38;1;1;
71858;PMS5003;59713;50.866;4.324;2023-07-28T06:06:38;1;1;
71858;PMS5003;59713;50.866;4.324;2023-07-28T06:06:38;1;1;
71858;PMS5003;59713;50.866;4.324;2023-07-28T06:07:38;1;1;
71858;PMS5003;59713;50.866;4.324;2023-07-28T06:08:38;1;1;
71858;PMS5003;59713;50.866;4.324;2023-07-28T06:09:38;1;0;
71858;PMS5003;59713;50.866;4.324;2023-07-28T06:10:39;1;0;
71858;PMS5003;59713;50.866;4.324;2023-07-28T06:11:38;1;0;